الصفحة الرئيسية
METAR-TAF:

METAR-TAF

مطار :

تشيتا, روسيا

دائرة عرض: 52-05N, خط طول: 113-29E, ارتفاع: 685 متر

مراقبة الطقس الحالي

تاريخ ووقت الإصدار 29 دقيقة قبل الساعة 19:30UTC
ريح 10 عقدة من الجنوب الغربي
درجة الحرارة 6°درجة مئوية
الرطوبة 42%
ضغط 1009 hPa
الرؤية 10 كم أو أكثر

METAR: UIAA 151930Z 23005MPS 9999 NSC 06/M06 Q1009 R29/CLRD70 NOSIG RMK QFE699/0932

زمن: 04:59 (19:59 UTC)

توقعات

تاريخ ووقت الإصدار 2ساعات و 59 دقيقة قبل الساعة 17:00UTC
التوقعات صالحة من15 الساعة 18 UTC إلى 16 الساعة 18 UTC
ريح 12 عقدة من الغرب/الشمال الغربي تتزايد حتى 23 عقدة
الرؤية 10 كم أو أكثر
غيوم متفرقة على ارتفاع 4000 قدم, مزنة ركامية.
مؤقت
من 15 الساعة 18 UTC إلى 15 الساعة 24 UTC
ريح 6 عقدة من الجنوب الغربي تتزايد حتى 16 عقدة
مؤقت
من 16 الساعة 03 UTC إلى 16 الساعة 15 UTC
ريح 23 عقدة من الغرب تتزايد حتى 35 عقدة

TAF: UIAA 151700Z 1518/1618 29006G12MPS 9999 SCT040CB TEMPO 1518/1524 23003G08MPS TEMPO 1603/1615 28012G18MPS

أرصاد الطقس والتوقعات من أكثر من 4000 مطار (تقارير الطقس للمطار METAR والتنبؤ بالطقس بالمطارTAF).

المحطات المتاحة هي النقط الصفراء والحمراء على الخريطة.

حرك المؤشر فوق النقطة لمعرفة اسم المحطة.

ثم انقر لمعرفة أرصاد وتوقعات الطقس.

لتغيير الخارطة: اضغط على الأزرار الخضراء مع رمز الصليب الأسود للتكبير. على الزر الأخضر مع شرطة للتصغير، أو على الأسهم الخضراء للخرائط المجاورة.


METAR-TAF: